Time;durP1;ratioP1;P1;durP2;ratioP2;P2;SDS_P1;SDS_P2;PMS_P1;PMS_P2;Temp;Humidity;BMP_temperature;BMP_pressure;BME280_temperature;BME280_humidity;BME280_pressure;Samples;Min_cycle;Max_cycle;Signal;HPM_P1;HPM_P2
2023/07/07 00:03:50;;;;;;;4.85;2.92;;;;;;;21.27;62.25;99941.81;7738287;32;39687;-80
2023/07/07 00:08:07;;;;;;;6.43;2.70;;;;;;;21.17;62.52;99948.59;7738225;32;38693;-79
2023/07/07 00:12:23;;;;;;;4.50;2.60;;;;;;;21.37;61.73;99946.16;7738339;32;37305;-80
2023/07/07 00:16:40;;;;;;;5.43;2.65;;;;;;;21.17;62.15;99950.56;7738041;32;39360;-80
2023/07/07 00:21:01;;;;;;;6.20;2.75;;;;;;;21.18;62.00;99957.72;7738147;32;39724;-79
2023/07/07 00:25:17;;;;;;;7.45;3.22;;;;;;;20.98;62.41;99949.06;7738152;32;38002;-79
2023/07/07 00:29:34;;;;;;;6.15;3.25;;;;;;;21.19;61.54;99959.34;7738067;32;37063;-80
2023/07/07 00:33:50;;;;;;;5.10;2.90;;;;;;;21.12;61.80;99961.84;7738026;32;39163;-79
2023/07/07 00:38:06;;;;;;;5.35;2.80;;;;;;;21.15;61.63;99963.94;7738002;32;39636;-80
2023/07/07 00:42:23;;;;;;;5.10;2.85;;;;;;;21.11;61.69;99962.97;7737753;32;37804;-80
2023/07/07 00:46:40;;;;;;;5.05;3.10;;;;;;;21.11;61.62;99957.44;7737869;32;37015;-80
2023/07/07 00:51:03;;;;;;;5.78;3.12;;;;;;;21.00;62.07;99957.84;7737859;32;39522;-79
2023/07/07 00:55:24;;;;;;;;;;;;;;;20.89;62.78;99962.19;7738054;32;41551;-80
2023/07/07 00:59:43;;;;;;;5.43;3.15;;;;;;;21.07;62.27;99970.37;7737877;32;37976;-80
2023/07/07 01:04:02;;;;;;;4.55;2.72;;;;;;;20.94;62.47;99963.94;7723982;32;37082;-80
2023/07/07 01:08:19;;;;;;;7.68;3.00;;;;;;;21.04;61.96;99962.72;7723955;32;39072;-80
2023/07/07 01:12:36;;;;;;;9.45;3.03;;;;;;;20.97;62.06;99963.25;7737580;32;40770;-80
2023/07/07 01:17:33;;;;;;;10.50;3.28;;;;;;;20.84;62.38;99962.37;7723211;32;39105;-80
2023/07/07 01:22:46;;;;;;;6.55;2.90;;;;;;;20.89;62.20;99958.62;7736909;32;37455;-81
2023/07/07 01:27:15;;;;;;;4.83;2.50;;;;;;;20.89;62.11;99962.19;7627104;32;39245;-80
2023/07/07 01:32:03;;;;;;;5.32;2.90;;;;;;;20.79;62.32;99966.16;7689207;32;40022;-80
2023/07/07 01:36:20;;;;;;;6.20;2.92;;;;;;;21.07;61.17;99970.37;7736826;32;36537;-80
2023/07/07 01:41:03;;;;;;;4.95;2.70;;;;;;;20.70;62.21;99970.16;7736807;32;36997;-80
2023/07/07 01:45:34;;;;;;;7.15;3.10;;;;;;;20.60;62.72;99974.06;7724923;32;40090;-80
2023/07/07 01:50:17;;;;;;;7.75;3.30;;;;;;;20.51;63.21;99974.12;7739605;32;39693;-80
2023/07/07 01:54:38;;;;;;;5.07;2.72;;;;;;;20.50;63.09;99966.94;7702843;32;38018;-80
2023/07/07 01:58:54;;;;;;;5.35;3.20;;;;;;;20.56;62.69;99975.91;7699768;32;38275;-80
2023/07/07 02:03:11;;;;;;;8.02;3.00;;;;;;;20.46;62.59;99977.09;7712912;32;39090;-80
2023/07/07 02:07:30;;;;;;;7.03;3.12;;;;;;;20.44;62.72;99966.34;7712961;32;40035;-79
2023/07/07 02:11:46;;;;;;;6.25;3.25;;;;;;;20.27;63.20;99975.53;7699420;32;37685;-80
2023/07/07 02:16:03;;;;;;;5.47;2.90;;;;;;;20.25;63.18;99972.28;7712752;32;36810;-80
2023/07/07 02:20:19;;;;;;;4.97;2.60;;;;;;;20.40;62.71;99972.88;7699166;32;40142;-79
2023/07/07 02:24:36;;;;;;;6.60;3.08;;;;;;;20.25;63.24;99983.38;7712660;32;39858;-79
2023/07/07 02:28:52;;;;;;;5.10;2.70;;;;;;;20.10;63.68;99975.63;7699028;32;38767;-79
2023/07/07 02:33:09;;;;;;;5.87;3.33;;;;;;;20.00;63.92;99979.53;7712752;32;36756;-79
2023/07/07 02:37:25;;;;;;;6.72;2.83;;;;;;;20.14;63.31;99982.09;7712667;32;40103;-79
2023/07/07 02:41:41;;;;;;;5.97;3.05;;;;;;;20.11;63.03;99982.78;7712540;32;40078;-79
2023/07/07 02:45:58;;;;;;;6.20;3.05;;;;;;;20.15;62.93;99980.97;7712487;32;37912;-79
2023/07/07 02:50:14;;;;;;;7.00;3.62;;;;;;;20.08;63.25;99995.31;7698776;32;37374;-79
2023/07/07 02:54:31;;;;;;;8.00;3.05;;;;;;;20.11;63.13;99993.03;7712431;32;39011;-80
2023/07/07 02:58:47;;;;;;;5.72;3.25;;;;;;;20.10;63.40;99997.75;7711527;32;40057;-79
2023/07/07 03:03:03;;;;;;;6.22;3.28;;;;;;;20.06;64.04;99999.56;7712165;32;38782;-79
2023/07/07 03:07:19;;;;;;;4.35;3.00;;;;;;;20.29;63.64;100002.87;7712170;32;37081;-79
2023/07/07 03:11:36;;;;;;;4.40;2.80;;;;;;;20.02;64.71;100013.25;7712136;32;40044;-78
2023/07/07 03:15:52;;;;;;;6.35;2.70;;;;;;;20.04;64.68;100015.66;7711909;32;40051;-79
2023/07/07 03:20:09;;;;;;;6.53;3.10;;;;;;;20.13;64.33;100018.41;7712058;32;37698;-79
2023/07/07 03:24:25;;;;;;;8.68;3.35;;;;;;;20.07;64.40;100018.62;7712029;32;37182;-79
2023/07/07 03:28:42;;;;;;;8.75;3.70;;;;;;;20.11;64.03;100024.28;7711921;32;39290;-79
2023/07/07 03:32:58;;;;;;;7.80;3.85;;;;;;;20.11;63.83;100027.06;7711940;32;39836;-79
2023/07/07 03:37:15;;;;;;;7.30;3.62;;;;;;;20.14;63.53;100020.84;7711814;32;38058;-79
2023/07/07 03:41:32;;;;;;;8.48;4.15;;;;;;;20.12;63.53;100030.63;7711895;32;37396;-79
2023/07/07 03:45:48;;;;;;;5.93;3.22;;;;;;;20.19;63.38;100030.94;7711826;32;40010;-79
2023/07/07 03:50:05;;;;;;;9.07;3.70;;;;;;;20.09;63.61;100029.31;7710570;32;41255;-80
2023/07/07 03:54:21;;;;;;;6.43;3.20;;;;;;;20.14;63.41;100026.38;7711649;32;38534;-79
2023/07/07 03:58:37;;;;;;;6.43;3.37;;;;;;;20.20;63.24;100030.59;7711720;32;37834;-79
2023/07/07 04:02:54;;;;;;;6.68;3.28;;;;;;;20.17;63.34;100036.00;7711583;32;39281;-79
2023/07/07 04:07:11;;;;;;;5.87;3.08;;;;;;;20.26;63.00;100045.06;7711740;32;39639;-79
2023/07/07 04:11:30;;;;;;;8.73;3.53;;;;;;;20.19;63.03;100044.78;7711145;32;38882;-79
2023/07/07 04:16:00;;;;;;;6.80;3.80;;;;;;;20.32;62.65;100056.81;7711315;32;37358;-79
2023/07/07 04:20:16;;;;;;;7.18;3.12;;;;;;;20.10;63.36;100053.09;7711457;32;40269;-79
2023/07/07 04:24:33;;;;;;;5.72;3.30;;;;;;;20.31;62.75;100055.16;7711293;32;40581;-79
2023/07/07 04:28:54;;;;;;;8.50;4.05;;;;;;;20.32;62.61;100059.56;7711202;32;38085;-79
2023/07/07 04:33:10;;;;;;;9.43;3.87;;;;;;;20.39;62.23;100065.41;7711421;32;37192;-79
2023/07/07 04:37:27;;;;;;;8.55;3.40;;;;;;;20.24;62.65;100073.06;7711263;32;39072;-80
2023/07/07 04:41:44;;;;;;;8.05;4.07;;;;;;;20.13;62.98;100080.13;7711053;32;40738;-79
2023/07/07 04:46:01;;;;;;;8.30;4.05;;;;;;;20.29;62.37;100085.13;7710989;32;38093;-79
2023/07/07 04:50:18;;;;;;;10.25;3.78;;;;;;;20.27;62.43;100085.47;7710932;32;37833;-79
2023/07/07 04:54:35;;;;;;;8.95;3.60;;;;;;;20.41;62.09;100086.06;7710899;32;39445;-79
2023/07/07 04:58:52;;;;;;;11.00;4.22;;;;;;;20.42;62.11;100093.25;7710809;32;40059;-79
2023/07/07 05:03:09;;;;;;;7.80;3.75;;;;;;;20.45;61.87;100094.50;7710619;32;37648;-79
2023/07/07 05:07:25;;;;;;;7.22;3.67;;;;;;;20.51;61.70;100084.09;7710647;32;37921;-79
2023/07/07 05:11:42;;;;;;;9.27;4.10;;;;;;;20.47;62.03;100081.16;7710571;32;40151;-80
2023/07/07 05:16:00;;;;;;;7.90;3.87;;;;;;;20.52;61.80;100088.47;7710369;32;40914;-80
2023/07/07 05:20:17;;;;;;;8.80;4.12;;;;;;;20.49;61.95;100098.28;7710402;32;38021;-79
2023/07/07 05:24:34;;;;;;;8.75;4.00;;;;;;;20.59;61.84;100091.53;7709399;32;37839;-79
2023/07/07 05:28:51;;;;;;;6.80;3.70;;;;;;;20.51;62.49;100095.16;7710270;32;38990;-80
2023/07/07 05:33:08;;;;;;;7.95;4.07;;;;;;;20.56;62.42;100101.34;7710183;32;40113;-80
2023/07/07 05:37:24;;;;;;;10.50;4.20;;;;;;;20.49;62.96;100095.50;7709828;32;38064;-79
2023/07/07 05:41:41;;;;;;;7.85;4.15;;;;;;;20.63;62.62;100098.88;7709993;32;37959;-79
2023/07/07 05:46:02;;;;;;;9.50;4.00;;;;;;;20.66;62.72;100096.59;7709769;32;39449;-79
2023/07/07 05:50:19;;;;;;;9.68;4.55;;;;;;;20.96;61.98;100098.25;7709734;32;40041;-80
2023/07/07 05:54:35;;;;;;;7.30;4.22;;;;;;;21.09;61.44;100093.59;7709595;32;38813;-73
2023/07/07 05:58:54;;;;;;;8.00;4.53;;;;;;;21.32;61.17;100088.56;7709483;32;37790;-69
2023/07/07 06:03:10;;;;;;;8.88;4.35;;;;;;;21.56;60.75;100093.47;7709395;32;38491;-69
2023/07/07 06:07:31;;;;;;;6.57;3.83;;;;;;;21.81;60.09;100096.38;7709274;32;39689;-69
2023/07/07 06:11:47;;;;;;;10.30;3.90;;;;;;;21.99;59.76;100096.19;7709040;32;38683;-70
2023/07/07 06:16:05;;;;;;;6.10;3.58;;;;;;;21.59;60.24;100111.37;7708859;32;37920;-69
2023/07/07 06:20:22;;;;;;;5.87;3.30;;;;;;;21.45;60.22;100116.38;7695373;32;39370;-75
2023/07/07 06:24:39;;;;;;;6.40;3.87;;;;;;;21.65;59.75;100115.59;7695136;32;40515;-78
2023/07/07 06:28:56;;;;;;;7.45;3.85;;;;;;;21.78;59.27;100123.97;7708601;32;37921;-71
2023/07/07 06:33:12;;;;;;;9.13;3.78;;;;;;;21.81;58.47;100123.31;7709531;32;37245;-69
2023/07/07 06:37:28;;;;;;;6.55;3.58;;;;;;;22.20;57.31;100124.75;7712701;32;39091;-72
2023/07/07 06:41:45;;;;;;;5.82;3.20;;;;;;;22.46;56.39;100127.25;7720111;32;39618;-71
2023/07/07 06:46:01;;;;;;;8.77;3.40;;;;;;;22.72;54.66;100130.91;7737481;32;38016;-72
2023/07/07 06:50:38;;;;;;;7.47;2.75;;;;;;;23.16;50.54;100128.37;7709525;32;37241;-73
2023/07/07 06:54:57;;;;;;;7.53;3.42;;;;;;;23.52;47.10;100127.50;7729134;32;39232;-73
2023/07/07 06:59:13;;;;;;;4.62;3.10;;;;;;;23.94;46.00;100126.38;7732879;32;40040;-71
2023/07/07 07:03:30;;;;;;;11.68;4.05;;;;;;;24.04;43.71;100127.84;7711889;32;38022;-71
2023/07/07 07:07:47;;;;;;;7.70;2.60;;;;;;;24.06;44.09;100143.06;7712112;32;38515;-82
2023/07/07 07:12:04;;;;;;;6.15;2.95;;;;;;;23.84;44.19;100144.41;7720597;32;39211;-82
2023/07/07 07:16:21;;;;;;;5.65;3.28;;;;;;;24.08;42.18;100142.69;7711765;32;39637;-84
2023/07/07 07:20:37;;;;;;;5.87;2.50;;;;;;;24.63;43.75;100146.59;7711937;32;38882;-85
2023/07/07 07:24:53;;;;;;;6.28;3.03;;;;;;;24.78;42.23;100144.19;7710709;32;37967;-81
2023/07/07 07:29:14;;;;;;;5.60;2.62;;;;;;;25.07;41.84;100148.47;7723372;32;40225;-86
2023/07/07 07:33:31;;;;;;;5.95;2.90;;;;;;;24.91;40.30;100146.50;7709101;32;40386;-85
2023/07/07 07:37:47;;;;;;;6.97;2.92;;;;;;;25.08;39.72;100158.47;7725582;32;38312;-85
2023/07/07 07:42:04;;;;;;;6.47;2.90;;;;;;;25.39;40.69;100152.06;7735754;32;36955;-88
2023/07/07 07:46:21;;;;;;;5.53;2.92;;;;;;;25.37;38.58;100153.59;7725383;32;39013;-87
2023/07/07 07:50:37;;;;;;;7.07;3.10;;;;;;;25.64;41.89;100165.78;7721117;32;40785;-88
2023/07/07 07:54:54;;;;;;;6.65;2.95;;;;;;;25.65;37.63;100156.25;7723744;32;38454;-84
2023/07/07 07:59:11;;;;;;;5.10;2.78;;;;;;;25.18;37.97;100165.47;7717511;32;288170;-82
2023/07/07 08:03:27;;;;;;;5.65;3.20;;;;;;;25.57;35.81;100158.03;7733504;32;40158;-83
2023/07/07 08:07:44;;;;;;;9.05;3.15;;;;;;;25.80;37.84;100174.91;7745925;32;40875;-82
2023/07/07 08:12:03;;;;;;;6.03;2.97;;;;;;;25.73;35.09;100169.16;7755033;32;38807;-82
2023/07/07 08:16:27;;;;;;;8.82;2.85;;;;;;;25.64;36.49;100179.72;7710724;32;38712;-82
2023/07/07 08:20:48;;;;;;;5.40;2.80;;;;;;;25.38;35.34;100175.56;7711211;32;39263;-84
2023/07/07 08:25:05;;;;;;;5.93;2.65;;;;;;;25.66;35.39;100186.59;7718271;32;40600;-83
2023/07/07 08:29:23;;;;;;;5.85;2.78;;;;;;;26.00;36.11;100186.13;7727637;32;38797;-84
2023/07/07 08:33:43;;;;;;;5.97;2.75;;;;;;;26.14;35.33;100182.81;7720621;32;36825;-83
2023/07/07 08:38:15;;;;;;;8.27;2.50;;;;;;;26.40;33.69;100190.50;7737446;32;39290;-84
2023/07/07 08:42:37;;;;;;;6.80;2.58;;;;;;;26.24;34.64;100187.81;7737750;32;39972;-84
2023/07/07 08:47:03;;;;;;;6.60;2.65;;;;;;;26.37;34.39;100185.66;7701342;32;37939;-85
2023/07/07 08:51:25;;;;;;;5.35;2.67;;;;;;;26.38;34.31;100192.87;7710986;32;37054;-84
2023/07/07 08:55:56;;;;;;;6.87;2.45;;;;;;;26.60;34.82;100194.91;7710444;32;39389;-85
2023/07/07 09:00:18;;;;;;;6.97;2.85;;;;;;;26.66;33.51;100194.62;7722209;32;40019;-84
2023/07/07 09:05:06;;;;;;;6.28;2.78;;;;;;;26.57;34.44;100194.84;7710554;32;36573;-84
2023/07/07 09:09:32;;;;;;;5.85;2.50;;;;;;;26.66;35.07;100203.00;7710587;32;37138;-84
2023/07/07 09:13:52;;;;;;;7.22;2.95;;;;;;;27.22;34.60;100196.78;7710452;32;39312;-83
2023/07/07 09:18:26;;;;;;;7.43;2.80;;;;;;;27.20;32.14;100190.78;7697116;32;40055;-84
2023/07/07 09:22:49;;;;;;;14.02;3.17;;;;;;;27.34;31.22;100198.62;7709346;32;38737;-83
2023/07/07 09:27:13;;;;;;;7.18;3.42;;;;;;;27.60;31.24;100192.19;7696818;32;37849;-84
2023/07/07 09:31:37;;;;;;;5.75;2.90;;;;;;;28.14;31.13;100194.94;7697212;32;39454;-84
2023/07/07 09:35:58;;;;;;;5.32;2.62;;;;;;;28.51;31.93;100186.56;7706369;32;39876;-83
2023/07/07 09:40:26;;;;;;;6.87;2.70;;;;;;;28.86;31.08;100185.31;7702189;32;37706;-85
2023/07/07 09:45:10;;;;;;;6.30;2.97;;;;;;;29.41;29.05;100195.81;7708261;32;36986;-82
2023/07/07 09:49:54;;;;;;;4.37;2.42;;;;;;;29.38;29.14;100190.97;7709713;32;39343;-81
2023/07/07 09:54:13;;;;;;;6.22;2.50;;;;;;;29.36;27.48;100196.19;7717526;32;39912;-81
2023/07/07 09:58:50;;;;;;;6.93;2.97;;;;;;;29.45;29.42;100193.81;7723426;32;36978;-82
2023/07/07 10:03:45;;;;;;;5.05;2.72;;;;;;;29.89;27.31;100195.72;7722282;32;37813;-81
2023/07/07 10:08:11;;;;;;;5.43;2.87;;;;;;;29.93;27.33;100201.38;7718391;32;40064;-81
2023/07/07 10:12:33;;;;;;;7.20;2.70;;;;;;;29.86;26.50;100199.31;7721077;32;39949;-81
2023/07/07 10:17:05;;;;;;;7.15;2.50;;;;;;;29.64;27.12;100200.38;7724557;32;37726;-80
2023/07/07 10:21:21;;;;;;;9.38;3.15;;;;;;;29.86;28.98;100196.50;7725393;32;37852;-81
2023/07/07 10:25:42;;;;;;;6.37;2.62;;;;;;;29.68;30.12;100210.41;7723316;32;40330;-84
2023/07/07 10:30:04;;;;;;;7.90;3.12;;;;;;;29.62;28.87;100199.97;7723758;32;40065;-84
2023/07/07 10:34:36;;;;;;;5.93;2.85;;;;;;;29.87;28.41;100208.53;7737665;32;38856;-85
2023/07/07 10:38:55;;;;;;;5.60;2.40;;;;;;;29.86;28.57;100207.75;7699964;32;37082;-83
2023/07/07 10:43:14;;;;;;;5.50;2.78;;;;;;;29.80;29.47;100212.12;7712532;32;39363;-85
2023/07/07 10:47:33;;;;;;;5.12;2.90;;;;;;;29.82;31.00;100203.28;7712466;32;38945;-84
2023/07/07 10:51:49;;;;;;;6.30;2.55;;;;;;;30.20;28.97;100187.81;7712451;32;38012;-84
2023/07/07 10:56:26;;;;;;;5.00;2.65;;;;;;;30.10;30.81;100188.59;7712471;32;37176;-85
2023/07/07 11:01:01;;;;;;;7.53;2.58;;;;;;;30.37;28.56;100191.09;7699709;32;39366;-85
2023/07/07 11:05:23;;;;;;;4.53;2.78;;;;;;;30.70;27.51;100182.34;7712291;32;39930;-85
2023/07/07 11:09:45;;;;;;;5.53;2.95;;;;;;;30.61;26.84;100176.28;7699231;32;37885;-85
2023/07/07 11:14:12;;;;;;;10.23;2.92;;;;;;;30.61;23.70;100176.28;7729135;32;37076;-84
2023/07/07 11:18:46;;;;;;;6.95;2.50;;;;;;;30.87;23.52;100179.94;7738740;32;40612;-83
2023/07/07 11:23:19;;;;;;;6.87;3.35;;;;;;;30.69;24.06;100171.50;7724530;32;39622;-83
2023/07/07 11:28:02;;;;;;;6.03;2.72;;;;;;;30.92;23.87;100171.09;7738766;32;37614;-84
2023/07/07 11:32:44;;;;;;;6.53;2.80;;;;;;;31.26;25.68;100163.06;7724650;32;37369;-81
2023/07/07 11:37:01;;;;;;;;;;;;;;;31.93;25.83;100154.06;7695267;32;39010;-81
2023/07/07 11:41:39;;;;;;;5.05;2.60;;;;;;;31.89;22.82;100165.34;7739236;32;39371;-81
2023/07/07 11:46:25;;;;;;;6.47;2.58;;;;;;;31.08;23.05;100156.66;7701061;32;38730;-81
2023/07/07 11:50:56;;;;;;;5.68;2.58;;;;;;;31.11;23.20;100150.19;7703935;32;37853;-81
2023/07/07 11:55:24;;;;;;;5.07;2.85;;;;;;;31.10;26.37;100156.22;7711923;32;39433;-82
2023/07/07 12:00:29;;;;;;;5.32;2.95;;;;;;;31.63;23.34;100152.53;7711749;32;39654;-81
2023/07/07 12:04:46;;;;;;;5.37;2.72;;;;;;;31.75;22.23;100148.47;7714838;32;38162;-81
2023/07/07 12:09:19;;;;;;;6.53;2.62;;;;;;;31.96;20.84;100148.41;7718425;32;37053;-80
2023/07/07 12:13:43;;;;;;;6.15;2.72;;;;;;;31.96;21.16;100150.41;7710229;32;39560;-80
2023/07/07 12:18:19;;;;;;;7.03;2.80;;;;;;;31.63;20.65;100144.09;7699519;32;40891;-80
2023/07/07 12:22:40;;;;;;;4.57;2.45;;;;;;;31.77;22.58;100138.41;7721602;32;38010;-80
2023/07/07 12:27:15;;;;;;;5.70;3.05;;;;;;;32.63;21.99;100136.38;7716996;32;37858;-81
2023/07/07 12:31:32;;;;;;;5.57;2.50;;;;;;;32.73;21.67;100129.84;7710040;32;39487;-81
2023/07/07 12:35:58;;;;;;;4.75;2.58;;;;;;;32.52;20.06;100128.75;7711232;32;40862;-80
2023/07/07 12:40:18;;;;;;;5.57;2.25;;;;;;;32.96;20.45;100128.44;7697878;32;38155;-81
2023/07/07 12:44:36;;;;;;;6.87;3.10;;;;;;;32.27;21.02;100116.84;7697657;32;37609;-81
2023/07/07 12:48:53;;;;;;;6.72;2.83;;;;;;;32.44;21.00;100104.63;7710938;32;39920;-82
2023/07/07 12:53:22;;;;;;;4.80;2.85;;;;;;;32.09;21.05;100105.69;7722006;32;40887;-83
2023/07/07 12:57:56;;;;;;;4.95;2.47;;;;;;;31.76;20.97;100116.28;7737694;32;38406;-83
2023/07/07 13:02:20;;;;;;;8.10;3.15;;;;;;;32.05;21.04;100111.34;7726101;32;37284;-80
2023/07/07 13:06:57;;;;;;;4.68;2.50;;;;;;;31.61;21.26;100110.69;7737676;32;39286;-78
2023/07/07 13:11:26;;;;;;;8.95;2.92;;;;;;;31.22;21.67;100111.59;7737525;32;40007;-78
2023/07/07 13:15:43;;;;;;;6.20;2.90;;;;;;;30.52;22.64;100116.81;7709360;32;37576;-79
2023/07/07 13:20:02;;;;;;;5.82;2.67;;;;;;;30.87;22.34;100107.59;7710451;32;37813;-77
2023/07/07 13:24:20;;;;;;;9.07;3.03;;;;;;;31.27;23.47;100114.00;7709235;32;39924;-77
2023/07/07 13:28:36;;;;;;;6.00;2.42;;;;;;;31.94;21.38;100104.91;7705299;32;39997;-77
2023/07/07 13:32:55;;;;;;;5.90;2.47;;;;;;;32.26;21.43;100098.31;7701515;32;38781;-78
2023/07/07 13:37:11;;;;;;;6.05;2.85;;;;;;;32.19;23.30;100102.00;7683602;32;36087;-78
2023/07/07 13:41:28;;;;;;;6.07;2.65;;;;;;;32.14;21.98;100094.75;7698698;32;40092;-77
2023/07/07 13:45:44;;;;;;;6.82;2.83;;;;;;;31.33;22.59;100107.94;7706431;32;40000;-77
2023/07/07 13:50:05;;;;;;;6.28;2.80;;;;;;;30.99;23.38;100102.75;7712590;32;37556;-77
2023/07/07 13:54:24;;;;;;;6.07;2.70;;;;;;;31.58;21.52;100103.06;7695320;32;37268;-77
2023/07/07 13:58:42;;;;;;;6.43;2.75;;;;;;;31.88;22.24;100106.56;7694684;32;39637;-78
2023/07/07 14:03:00;;;;;;;7.62;3.33;;;;;;;31.93;20.89;100104.13;7701856;32;40591;-78
2023/07/07 14:07:19;;;;;;;5.18;2.90;;;;;;;32.01;20.57;100102.03;7689852;32;37663;-77
2023/07/07 14:11:36;;;;;;;6.97;2.90;;;;;;;32.81;21.41;100094.69;7685774;32;37847;-77
2023/07/07 14:16:07;;;;;;;7.80;3.12;;;;;;;33.12;21.04;100097.63;7701847;32;39512;-78
2023/07/07 14:20:27;;;;;;;5.17;2.67;;;;;;;33.07;20.28;100086.78;7699265;32;40155;-78
2023/07/07 14:24:44;;;;;;;9.10;2.95;;;;;;;33.43;20.14;100092.09;7712204;32;38033;-78
2023/07/07 14:29:04;;;;;;;5.60;3.00;;;;;;;32.45;20.54;100088.53;7712550;32;37863;-77
2023/07/07 14:33:25;;;;;;;9.52;3.40;;;;;;;32.27;21.18;100085.81;7698923;32;39975;-78
2023/07/07 14:37:56;;;;;;;5.25;2.50;;;;;;;32.54;21.27;100086.81;7708477;32;40847;-78
2023/07/07 14:42:21;;;;;;;5.57;2.80;;;;;;;32.57;20.41;100083.16;7720397;32;38013;-77
2023/07/07 14:46:39;;;;;;;6.82;2.97;;;;;;;32.57;21.72;100088.03;7714734;32;37026;-77
2023/07/07 14:51:09;;;;;;;6.32;2.92;;;;;;;32.79;19.51;100088.66;7737874;32;39033;-78
2023/07/07 14:55:29;;;;;;;6.00;2.42;;;;;;;33.14;19.94;100095.22;7724539;32;40164;-77
2023/07/07 14:59:45;;;;;;;6.62;2.92;;;;;;;34.23;21.90;100089.88;7724661;32;38240;-78
2023/07/07 15:04:23;;;;;;;13.85;3.20;;;;;;;33.68;19.96;100084.13;7724858;32;37021;-78
2023/07/07 15:08:43;;;;;;;6.25;2.80;;;;;;;34.10;20.20;100092.47;7738414;32;40380;-77
2023/07/07 15:13:01;;;;;;;7.90;2.65;;;;;;;34.68;19.62;100077.44;7732615;32;40927;-78
2023/07/07 15:17:18;;;;;;;6.82;2.83;;;;;;;35.13;18.35;100082.72;7698035;32;38013;-78
2023/07/07 15:21:35;;;;;;;6.37;3.00;;;;;;;34.64;18.69;100079.53;7711602;32;36813;-77
2023/07/07 15:25:52;;;;;;;4.53;2.90;;;;;;;34.69;19.38;100070.53;7711594;32;40136;-78
2023/07/07 15:30:17;;;;;;;6.55;3.03;;;;;;;34.28;18.42;100075.25;7714219;32;40195;-77
2023/07/07 15:34:33;;;;;;;4.35;2.60;;;;;;;34.41;18.21;100072.62;7718655;32;37970;-78
2023/07/07 15:38:53;;;;;;;5.43;2.33;;;;;;;34.49;19.06;100085.41;7737977;32;37871;-78
2023/07/07 15:43:11;;;;;;;7.10;3.03;;;;;;;34.33;19.40;100083.25;7727852;32;40028;-76
2023/07/07 15:47:29;;;;;;;5.90;3.08;;;;;;;34.48;18.51;100078.16;7721766;32;40619;-77
2023/07/07 15:51:46;;;;;;;4.43;2.70;;;;;;;34.11;18.47;100076.28;7726886;32;38808;-77
2023/07/07 15:56:03;;;;;;;5.60;2.58;;;;;;;33.78;19.53;100078.75;7728988;32;37355;-77
2023/07/07 16:00:33;;;;;;;7.28;3.30;;;;;;;33.62;18.99;100074.50;7731023;32;39377;-78
2023/07/07 16:04:51;;;;;;;4.05;2.28;;;;;;;33.47;19.24;100075.88;7737721;32;39928;-78
2023/07/07 16:09:13;;;;;;;5.18;2.83;;;;;;;33.62;18.54;100073.69;7737141;32;39806;-77
2023/07/07 16:13:30;;;;;;;9.35;2.65;;;;;;;33.53;18.94;100070.56;7737559;32;37289;-77
2023/07/07 16:17:47;;;;;;;8.77;2.95;;;;;;;33.05;20.09;100073.09;7738022;32;39921;-78
2023/07/07 16:22:09;;;;;;;10.77;2.75;;;;;;;32.97;20.53;100079.22;7737642;32;40881;-77
2023/07/07 16:26:34;;;;;;;4.47;2.53;;;;;;;33.22;20.38;100074.16;7737679;32;37960;-77
2023/07/07 16:30:51;;;;;;;8.93;3.03;;;;;;;33.12;20.89;100083.50;7737575;32;37849;-77
2023/07/07 16:35:08;;;;;;;6.22;2.83;;;;;;;33.31;20.09;100080.09;7737590;32;39437;-78
2023/07/07 16:39:24;;;;;;;5.97;3.08;;;;;;;33.17;20.93;100079.44;7737555;32;40843;-77
2023/07/07 16:43:43;;;;;;;8.20;2.80;;;;;;;33.24;20.24;100076.56;7737375;32;38839;-77
2023/07/07 16:48:00;;;;;;;8.27;3.10;;;;;;;33.25;20.17;100078.16;7737419;32;37089;-77
2023/07/07 16:52:17;;;;;;;8.82;3.10;;;;;;;32.93;20.72;100079.28;7737281;32;39241;-77
2023/07/07 16:56:42;;;;;;;5.30;3.20;;;;;;;32.63;20.55;100085.56;7737149;32;39856;-78
2023/07/07 17:00:59;;;;;;;7.10;2.95;;;;;;;32.59;21.14;100081.97;7737375;32;38095;-77
2023/07/07 17:05:20;;;;;;;5.18;2.83;;;;;;;32.56;23.05;100077.94;7717060;32;37057;-77
2023/07/07 17:09:37;;;;;;;6.95;3.10;;;;;;;32.64;23.30;100078.72;7733372;32;40139;-77
2023/07/07 17:14:01;;;;;;;5.18;2.95;;;;;;;32.46;23.54;100078.81;7722047;32;40082;-77
2023/07/07 17:18:18;;;;;;;6.90;3.20;;;;;;;32.41;24.78;100088.56;7708526;32;38086;-77
2023/07/07 17:22:34;;;;;;;6.47;2.60;;;;;;;32.29;25.86;100092.66;7710113;32;37263;-78
2023/07/07 17:26:52;;;;;;;8.30;3.22;;;;;;;31.87;26.51;100096.50;7711500;32;39272;-77
2023/07/07 17:31:13;;;;;;;4.97;2.53;;;;;;;31.56;26.89;100104.66;7722855;32;39853;-80
2023/07/07 17:35:30;;;;;;;;;;;;;;;31.31;27.42;100111.16;7736821;32;37963;-80
2023/07/07 17:39:47;;;;;;;6.68;2.80;;;;;;;31.18;27.87;100107.16;7736270;32;37598;-78
2023/07/07 17:44:04;;;;;;;5.95;2.58;;;;;;;30.87;27.37;100112.38;7736006;32;40012;-79
2023/07/07 17:48:21;;;;;;;4.35;2.10;;;;;;;30.31;28.44;100109.91;7735662;32;39954;-80
2023/07/07 17:52:38;;;;;;;4.75;2.35;;;;;;;30.19;28.64;100118.72;7735948;32;38952;-78
2023/07/07 17:56:54;;;;;;;4.00;2.45;;;;;;;29.74;29.63;100126.59;7729582;32;37093;-81
2023/07/07 18:01:11;;;;;;;9.02;3.00;;;;;;;29.42;30.42;100127.22;7716557;32;39072;-77
2023/07/07 18:05:29;;;;;;;4.80;2.55;;;;;;;29.47;30.12;100120.41;7718269;32;39611;-72
2023/07/07 18:09:45;;;;;;;6.93;2.55;;;;;;;29.27;31.16;100131.13;7724640;32;38704;-72
2023/07/07 18:14:01;;;;;;;6.70;2.78;;;;;;;28.96;32.40;100136.91;7726555;32;37604;-71
2023/07/07 18:18:18;;;;;;;7.18;2.53;;;;;;;28.55;33.42;100141.75;7722933;32;40312;-72
2023/07/07 18:22:55;;;;;;;6.07;2.80;;;;;;;28.45;33.59;100146.03;7725266;32;41643;-71
2023/07/07 18:27:11;;;;;;;5.70;2.58;;;;;;;28.23;33.86;100144.97;7722740;32;38558;-82
2023/07/07 18:31:32;;;;;;;5.47;2.80;;;;;;;28.19;34.46;100150.56;7723070;32;37390;-82
2023/07/07 18:35:49;;;;;;;4.55;2.50;;;;;;;27.82;35.75;100154.09;7725136;32;39289;-81
2023/07/07 18:40:16;;;;;;;6.70;2.72;;;;;;;27.78;35.82;100161.63;7723159;32;39943;-80
2023/07/07 18:44:32;;;;;;;9.60;3.25;;;;;;;27.67;36.13;100172.69;7718855;32;38043;-81
2023/07/07 18:48:49;;;;;;;9.68;2.65;;;;;;;27.46;36.63;100178.00;7733251;32;38099;-82
2023/07/07 18:53:05;;;;;;;5.70;2.83;;;;;;;27.34;37.04;100185.41;7733112;32;40114;-81
2023/07/07 18:57:22;;;;;;;6.25;2.85;;;;;;;27.21;37.11;100195.16;7730914;32;40819;-80
2023/07/07 19:01:39;;;;;;;8.05;2.70;;;;;;;27.15;37.55;100199.47;7724790;32;37906;-81
2023/07/07 19:05:55;;;;;;;7.25;2.90;;;;;;;26.94;38.61;100209.13;7728180;32;37960;-78
2023/07/07 19:10:33;;;;;;;9.13;3.22;;;;;;;26.90;38.00;100213.03;7729729;32;39603;-80
2023/07/07 19:14:50;;;;;;;12.35;3.00;;;;;;;26.81;38.00;100213.28;7713834;32;40826;-79
2023/07/07 19:19:11;;;;;;;10.52;3.28;;;;;;;26.73;37.41;100217.94;7725633;32;38107;-78
2023/07/07 19:23:29;;;;;;;4.35;2.37;;;;;;;26.53;37.39;100217.13;7719065;32;38100;-79
2023/07/07 19:27:45;;;;;;;6.12;3.00;;;;;;;26.33;38.03;100223.91;7715176;32;39473;-78
2023/07/07 19:32:08;;;;;;;5.25;2.65;;;;;;;26.24;38.36;100230.53;7729140;32;39292;-78
2023/07/07 19:36:27;;;;;;;;;;;;;;;26.04;39.11;100231.69;7717557;32;38048;-77
2023/07/07 19:40:44;;;;;;;6.10;2.65;;;;;;;26.11;39.03;100239.41;7725957;32;36869;-77
2023/07/07 19:45:02;;;;;;;6.35;2.97;;;;;;;25.89;39.12;100240.91;7710024;32;41529;-79
2023/07/07 19:49:24;;;;;;;8.40;2.87;;;;;;;25.71;40.25;100232.94;7725276;32;39800;-80
2023/07/07 19:53:41;;;;;;;7.70;3.40;;;;;;;25.75;40.44;100233.00;7734966;32;37690;-81
2023/07/07 19:57:58;;;;;;;7.50;3.22;;;;;;;25.68;40.24;100233.66;7727193;32;37573;-81
2023/07/07 20:02:19;;;;;;;9.25;2.70;;;;;;;25.57;39.73;100240.97;7727766;32;38273;-77
2023/07/07 20:06:46;;;;;;;11.73;5.57;;;;;;;25.43;41.10;100245.03;7726998;32;39880;-76
2023/07/07 20:11:11;;;;;;;22.67;10.50;;;;;;;25.30;40.73;100247.13;7735359;32;37723;-83
2023/07/07 20:15:29;;;;;;;30.12;11.93;;;;;;;25.17;40.88;100250.34;7736667;32;37508;-81
2023/07/07 20:19:47;;;;;;;8.63;3.25;;;;;;;24.93;41.60;100249.34;7708291;32;40301;-80